createdAt,value
2018-11-06T00:00:28.952Z,10.60
2018-11-06T00:03:02.645Z,10.60
2018-11-06T00:05:30.906Z,10.60
2018-11-06T00:07:59.212Z,10.60
2018-11-06T00:10:27.468Z,10.60
2018-11-06T00:12:55.708Z,10.60
2018-11-06T00:15:23.970Z,10.70
2018-11-06T00:17:52.231Z,10.70
2018-11-06T00:20:20.512Z,10.70
2018-11-06T00:22:48.775Z,10.60
2018-11-06T00:25:17.044Z,10.70
2018-11-06T00:27:45.358Z,10.60
2018-11-06T00:30:14.629Z,10.70
2018-11-06T00:32:43.237Z,10.60
2018-11-06T00:35:12.747Z,10.60
2018-11-06T00:37:42.001Z,10.60
2018-11-06T00:40:10.345Z,10.60
2018-11-06T00:42:38.835Z,10.60
2018-11-06T00:45:09.569Z,10.60
2018-11-06T00:47:38.077Z,10.60
2018-11-06T00:50:07.313Z,10.60
2018-11-06T00:52:35.512Z,10.70
2018-11-06T00:55:04.131Z,10.70
2018-11-06T00:57:32.367Z,10.70
2018-11-06T01:00:00.601Z,10.70
2018-11-06T01:02:28.870Z,10.70
2018-11-06T01:04:57.131Z,10.80
2018-11-06T01:07:26.178Z,10.70
2018-11-06T01:09:54.458Z,10.80
2018-11-06T01:12:22.733Z,10.80
2018-11-06T01:14:51.100Z,10.80
2018-11-06T01:17:19.393Z,10.80
2018-11-06T01:19:47.698Z,10.90
2018-11-06T01:22:15.994Z,10.90
2018-11-06T01:24:44.272Z,10.90
2018-11-06T01:27:12.504Z,10.90
2018-11-06T01:29:40.740Z,10.90
2018-11-06T01:32:09.112Z,10.90
2018-11-06T01:34:37.373Z,10.90
2018-11-06T01:37:05.654Z,10.90
2018-11-06T01:39:33.909Z,10.90
2018-11-06T01:42:02.154Z,10.90
2018-11-06T01:44:30.434Z,10.90
2018-11-06T01:46:58.686Z,10.90
2018-11-06T01:49:26.910Z,10.90
2018-11-06T01:51:55.177Z,10.80
2018-11-06T01:54:23.435Z,10.80
2018-11-06T01:56:51.707Z,10.70
2018-11-06T01:59:19.926Z,10.70
2018-11-06T02:01:48.173Z,10.60
2018-11-06T02:04:16.446Z,10.60
2018-11-06T02:06:44.711Z,10.50
2018-11-06T02:09:12.966Z,10.40
2018-11-06T02:11:42.251Z,10.30
2018-11-06T02:14:10.660Z,10.30
2018-11-06T02:16:38.905Z,10.20
2018-11-06T02:19:07.154Z,10.10
2018-11-06T02:21:35.414Z,10.10
2018-11-06T02:24:03.893Z,10.00
2018-11-06T02:26:32.213Z,10.00
2018-11-06T02:29:00.464Z,9.90
2018-11-06T02:31:28.696Z,9.90
2018-11-06T02:33:56.975Z,9.80
2018-11-06T02:36:25.251Z,9.70
2018-11-06T02:38:53.499Z,9.70
2018-11-06T02:41:21.774Z,9.60
2018-11-06T02:43:50.029Z,9.60
2018-11-06T02:46:18.302Z,9.50
2018-11-06T02:48:46.564Z,9.30
2018-11-06T02:51:14.801Z,9.20
2018-11-06T02:53:43.155Z,9.10
2018-11-06T02:56:11.395Z,8.90
2018-11-06T02:58:39.643Z,8.80
2018-11-06T03:01:08.131Z,8.70
2018-11-06T03:03:41.543Z,8.70
2018-11-06T03:06:11.251Z,8.60
2018-11-06T03:08:39.585Z,8.60
2018-11-06T03:11:07.947Z,8.50
2018-11-06T03:13:36.143Z,8.50
2018-11-06T03:16:05.581Z,8.40
2018-11-06T03:18:34.347Z,8.40
2018-11-06T03:21:02.618Z,8.30
2018-11-06T03:23:30.833Z,8.30
2018-11-06T03:25:59.064Z,8.20
2018-11-06T03:28:27.291Z,8.20
2018-11-06T03:30:55.528Z,8.20
2018-11-06T03:33:23.772Z,8.20
2018-11-06T03:35:51.997Z,8.10
2018-11-06T03:38:20.314Z,8.10
2018-11-06T03:40:48.588Z,8.10
2018-11-06T03:43:16.811Z,8.10
2018-11-06T03:45:45.064Z,8.00
2018-11-06T03:48:13.310Z,8.00
2018-11-06T03:50:41.573Z,8.00
2018-11-06T03:53:09.899Z,8.00
2018-11-06T03:55:38.120Z,7.90
2018-11-06T03:58:06.370Z,7.90
2018-11-06T04:00:34.594Z,7.90
2018-11-06T04:03:02.856Z,7.90
2018-11-06T04:05:31.068Z,7.90
2018-11-06T04:07:59.312Z,7.80
2018-11-06T04:10:27.661Z,7.80
2018-11-06T04:12:55.913Z,7.80
2018-11-06T04:15:24.147Z,7.70
2018-11-06T04:17:52.369Z,7.70
2018-11-06T04:20:21.404Z,7.70
2018-11-06T04:22:49.639Z,7.70
2018-11-06T04:25:17.903Z,7.70
2018-11-06T04:27:46.200Z,7.70
2018-11-06T04:30:14.864Z,7.60
2018-11-06T04:32:43.823Z,7.60
2018-11-06T04:35:12.619Z,7.60
2018-11-06T04:37:41.429Z,7.60
2018-11-06T04:40:11.453Z,7.50
2018-11-06T04:42:39.689Z,7.50
2018-11-06T04:45:09.077Z,7.60
2018-11-06T04:47:37.291Z,7.50
2018-11-06T04:50:05.736Z,7.60
2018-11-06T04:52:33.992Z,7.50
2018-11-06T04:55:02.253Z,7.50
2018-11-06T04:57:30.664Z,7.50
2018-11-06T04:59:58.870Z,7.50
2018-11-06T05:02:27.331Z,7.50
2018-11-06T05:04:55.579Z,7.50
2018-11-06T05:07:23.795Z,7.50
2018-11-06T05:09:52.021Z,7.50
2018-11-06T05:12:20.243Z,7.50
2018-11-06T05:14:48.582Z,7.50
2018-11-06T05:17:16.901Z,7.40
2018-11-06T05:19:45.796Z,7.40
2018-11-06T05:22:14.024Z,7.50
2018-11-06T05:24:42.392Z,7.40
2018-11-06T05:27:10.807Z,7.40
2018-11-06T05:29:39.017Z,7.50
2018-11-06T05:32:07.280Z,7.40
2018-11-06T05:34:35.585Z,7.40
2018-11-06T05:37:03.796Z,7.40
2018-11-06T05:39:32.121Z,7.40
2018-11-06T05:42:00.296Z,7.40
2018-11-06T05:44:28.492Z,7.40
2018-11-06T05:46:56.736Z,7.40
2018-11-06T05:49:24.964Z,7.40
2018-11-06T05:51:53.178Z,7.30
2018-11-06T05:54:21.428Z,7.30
2018-11-06T05:56:49.634Z,7.30
2018-11-06T05:59:17.890Z,7.30
2018-11-06T06:01:46.212Z,7.30
2018-11-06T06:04:14.842Z,7.30
2018-11-06T06:06:43.070Z,7.30
2018-11-06T06:09:11.344Z,7.30
2018-11-06T06:11:39.579Z,7.30
2018-11-06T06:14:07.805Z,7.30
2018-11-06T06:16:36.040Z,7.30
2018-11-06T06:19:04.761Z,7.20
2018-11-06T06:21:33.014Z,7.30
2018-11-06T06:24:01.266Z,7.20
2018-11-06T06:26:29.504Z,7.20
2018-11-06T06:28:58.779Z,7.10
2018-11-06T06:31:27.032Z,7.10
2018-11-06T06:33:55.271Z,7.20
2018-11-06T06:36:23.529Z,7.30
2018-11-06T06:38:51.850Z,7.30
2018-11-06T06:41:20.135Z,7.30
2018-11-06T06:43:48.393Z,7.30
2018-11-06T06:46:16.735Z,7.30
2018-11-06T06:48:44.906Z,7.40
2018-11-06T06:51:13.138Z,7.40
2018-11-06T06:53:41.413Z,7.40
2018-11-06T06:56:09.714Z,7.40
2018-11-06T06:58:38.092Z,7.40
2018-11-06T07:01:06.585Z,7.40
2018-11-06T07:03:34.830Z,7.30
2018-11-06T07:06:04.061Z,7.30
2018-11-06T07:08:32.292Z,7.40
2018-11-06T07:11:00.545Z,7.40
2018-11-06T07:13:28.828Z,7.50
2018-11-06T07:15:57.081Z,7.50
2018-11-06T07:18:25.328Z,7.60
2018-11-06T07:20:53.590Z,7.60
2018-11-06T07:23:22.052Z,7.70
2018-11-06T07:25:50.302Z,7.80
2018-11-06T07:28:18.561Z,7.80
2018-11-06T07:30:46.802Z,7.80
2018-11-06T07:33:15.085Z,7.90
2018-11-06T07:35:43.524Z,8.00
2018-11-06T07:38:11.659Z,8.00
2018-11-06T07:40:40.018Z,8.10
2018-11-06T07:43:08.148Z,8.20
2018-11-06T07:45:36.412Z,8.30
2018-11-06T07:48:04.974Z,8.30
2018-11-06T07:50:33.299Z,8.40
2018-11-06T07:53:01.472Z,8.50
2018-11-06T07:55:29.848Z,8.50
2018-11-06T07:57:58.123Z,8.60
2018-11-06T08:00:26.851Z,8.60
2018-11-06T08:02:55.114Z,8.60
2018-11-06T08:05:23.361Z,8.70
2018-11-06T08:07:52.041Z,8.70
2018-11-06T08:10:20.361Z,8.80
2018-11-06T08:12:49.950Z,8.80
2018-11-06T08:15:18.269Z,8.90
2018-11-06T08:17:46.819Z,9.00
2018-11-06T08:20:15.313Z,9.00
2018-11-06T08:22:43.559Z,9.10
2018-11-06T08:25:13.016Z,9.20
2018-11-06T08:27:42.041Z,9.20
2018-11-06T08:30:11.106Z,9.30
2018-11-06T08:32:39.896Z,9.40
2018-11-06T08:35:10.497Z,9.50
2018-11-06T08:37:38.802Z,9.70
2018-11-06T08:40:07.701Z,9.80
2018-11-06T08:42:36.024Z,9.90
2018-11-06T08:45:05.462Z,10.00
2018-11-06T08:47:33.737Z,10.20
2018-11-06T08:50:01.997Z,10.30
2018-11-06T08:52:30.245Z,10.40
2018-11-06T08:54:58.580Z,10.60
2018-11-06T08:57:26.840Z,10.70
2018-11-06T08:59:55.404Z,10.90
2018-11-06T09:02:22.994Z,11.10
2018-11-06T09:04:50.589Z,11.40
2018-11-06T09:07:18.170Z,11.50
2018-11-06T09:09:45.725Z,11.60
2018-11-06T09:12:13.272Z,11.80
2018-11-06T09:14:40.823Z,11.80
2018-11-06T09:17:08.487Z,12.00
2018-11-06T09:19:35.970Z,12.10
2018-11-06T09:22:03.493Z,12.20
2018-11-06T09:24:31.052Z,12.50
2018-11-06T09:26:58.643Z,12.60
2018-11-06T09:29:26.184Z,12.70
2018-11-06T09:31:53.724Z,12.80
2018-11-06T09:34:21.289Z,12.80
2018-11-06T09:36:48.855Z,12.90
2018-11-06T09:39:16.416Z,12.90
2018-11-06T09:41:43.944Z,12.90
2018-11-06T09:44:11.507Z,12.90
2018-11-06T09:46:39.070Z,13.00
2018-11-06T09:49:07.723Z,13.00
2018-11-06T09:51:35.312Z,13.00
2018-11-06T09:54:02.872Z,13.10
2018-11-06T09:56:30.441Z,13.10
2018-11-06T09:58:57.999Z,13.20
2018-11-06T10:01:25.541Z,13.20
2018-11-06T10:03:53.160Z,13.30
2018-11-06T10:06:20.823Z,13.50
2018-11-06T10:08:48.300Z,13.60
2018-11-06T10:11:16.485Z,13.70
2018-11-06T10:13:44.008Z,13.70
2018-11-06T10:16:11.594Z,13.80
2018-11-06T10:18:39.151Z,13.90
2018-11-06T10:21:06.772Z,14.00
2018-11-06T10:23:34.324Z,14.10
2018-11-06T10:26:01.874Z,14.20
2018-11-06T10:28:29.420Z,14.30
2018-11-06T10:30:57.058Z,14.40
2018-11-06T10:33:24.556Z,14.40
2018-11-06T10:35:52.105Z,14.50
2018-11-06T10:38:19.646Z,14.50
2018-11-06T10:40:47.216Z,14.60
2018-11-06T10:43:14.774Z,14.50
2018-11-06T10:45:42.341Z,14.50
2018-11-06T10:48:09.941Z,14.50
2018-11-06T10:50:37.488Z,14.50
2018-11-06T10:53:05.195Z,14.40
2018-11-06T10:55:32.744Z,14.50
2018-11-06T10:58:00.340Z,14.50
2018-11-06T11:01:34.238Z,14.70
2018-11-06T11:04:07.377Z,14.90
2018-11-06T11:06:34.848Z,16.50
2018-11-06T11:09:02.414Z,17.60
2018-11-06T11:11:29.972Z,18.20
2018-11-06T11:13:58.284Z,18.50
2018-11-06T11:16:26.541Z,19.20
2018-11-06T11:18:54.784Z,19.90
2018-11-06T11:21:23.105Z,20.60
2018-11-06T11:23:51.377Z,20.90
2018-11-06T11:26:19.637Z,21.00
2018-11-06T11:28:47.944Z,21.30
2018-11-06T11:31:16.212Z,21.70
2018-11-06T11:33:44.503Z,21.90
2018-11-06T11:36:12.801Z,22.20
2018-11-06T11:38:41.124Z,22.60
2018-11-06T11:41:09.633Z,23.00
2018-11-06T11:43:37.913Z,23.30
2018-11-06T11:46:06.194Z,23.40
2018-11-06T11:48:34.556Z,23.40
2018-11-06T11:51:02.848Z,23.00
2018-11-06T11:53:31.101Z,22.70
2018-11-06T11:55:59.377Z,22.50
2018-11-06T11:58:27.660Z,22.20
2018-11-06T12:00:55.939Z,22.00
2018-11-06T12:03:24.206Z,21.80
2018-11-06T12:05:52.447Z,21.70
2018-11-06T12:08:20.917Z,21.60
2018-11-06T12:10:49.199Z,21.40
2018-11-06T12:13:17.499Z,21.40
2018-11-06T12:18:20.647Z,21.20
2018-11-06T12:20:48.839Z,21.10
2018-11-06T12:23:17.118Z,21.00
2018-11-06T12:25:45.571Z,21.00
2018-11-06T12:28:13.647Z,21.10
2018-11-06T12:30:41.938Z,21.20
2018-11-06T12:33:10.193Z,21.40
2018-11-06T12:35:38.432Z,21.50
2018-11-06T12:38:06.784Z,21.70
2018-11-06T12:40:35.026Z,21.80
2018-11-06T12:43:03.304Z,22.00
2018-11-06T12:45:31.553Z,22.20
2018-11-06T12:47:59.844Z,22.40
2018-11-06T12:50:28.197Z,22.50
2018-11-06T12:52:56.313Z,22.60
2018-11-06T12:55:24.580Z,22.90
2018-11-06T12:57:52.845Z,23.00
2018-11-06T13:00:21.481Z,23.20
2018-11-06T13:02:49.751Z,23.40
2018-11-06T13:05:18.045Z,23.50
2018-11-06T13:07:46.566Z,23.70
2018-11-06T13:10:15.502Z,23.60
2018-11-06T13:12:44.050Z,23.70
2018-11-06T13:15:12.662Z,23.90
2018-11-06T13:17:40.954Z,24.00
2018-11-06T13:20:11.113Z,24.00
2018-11-06T13:22:40.106Z,24.10
2018-11-06T13:25:08.390Z,24.20
2018-11-06T13:27:37.599Z,24.50
2018-11-06T13:30:08.354Z,24.80
2018-11-06T13:32:36.581Z,24.90
2018-11-06T13:35:05.636Z,25.00
2018-11-06T13:37:33.938Z,25.00
2018-11-06T13:40:02.162Z,24.90
2018-11-06T13:42:30.455Z,24.70
2018-11-06T13:44:58.848Z,24.70
2018-11-06T13:47:26.974Z,24.60
2018-11-06T13:49:55.221Z,24.50
2018-11-06T13:52:23.476Z,24.40
2018-11-06T13:54:51.742Z,24.20
2018-11-06T13:57:20.028Z,24.10
2018-11-06T13:59:48.273Z,23.90
2018-11-06T14:02:16.596Z,23.70
2018-11-06T14:04:44.859Z,23.60
2018-11-06T14:07:13.109Z,23.50
2018-11-06T14:09:41.406Z,23.50
2018-11-06T14:12:09.724Z,23.50
2018-11-06T14:14:38.046Z,23.60
2018-11-06T14:17:06.299Z,23.60
2018-11-06T14:19:34.548Z,23.70
2018-11-06T14:22:02.833Z,23.70
2018-11-06T14:24:31.090Z,23.80
2018-11-06T14:26:59.380Z,23.80
2018-11-06T14:29:27.621Z,23.90
2018-11-06T14:31:55.866Z,24.00
2018-11-06T14:34:24.173Z,24.20
2018-11-06T14:36:52.479Z,24.30
2018-11-06T14:39:20.710Z,24.30
2018-11-06T14:41:48.983Z,24.30
2018-11-06T14:44:17.361Z,24.20
2018-11-06T14:46:45.657Z,23.90
2018-11-06T14:49:14.252Z,23.70
2018-11-06T14:51:42.498Z,23.40
2018-11-06T14:54:10.845Z,23.10
2018-11-06T14:56:39.107Z,22.80
2018-11-06T14:59:07.427Z,22.50
2018-11-06T15:01:35.714Z,22.20
2018-11-06T15:04:04.089Z,21.90
2018-11-06T15:06:32.389Z,21.60
2018-11-06T15:09:00.722Z,21.30
2018-11-06T15:11:29.036Z,21.00
2018-11-06T15:13:57.292Z,20.70
2018-11-06T15:16:25.543Z,20.50
2018-11-06T15:18:53.797Z,20.20
2018-11-06T15:21:22.093Z,20.00
2018-11-06T15:23:50.347Z,19.80
2018-11-06T15:26:18.791Z,19.70
2018-11-06T15:28:47.107Z,19.50
2018-11-06T15:31:15.401Z,19.30
2018-11-06T15:33:43.662Z,19.10
2018-11-06T15:36:12.043Z,18.90
2018-11-06T15:38:40.303Z,18.70
2018-11-06T15:41:08.717Z,18.60
2018-11-06T15:43:36.867Z,18.50
2018-11-06T15:46:05.839Z,18.30
2018-11-06T15:48:34.167Z,18.20
2018-11-06T15:51:02.510Z,18.00
2018-11-06T15:53:30.819Z,17.80
2018-11-06T15:55:59.330Z,17.70
2018-11-06T15:58:27.587Z,17.50
2018-11-06T16:00:55.867Z,17.40
2018-11-06T16:03:24.169Z,17.30
2018-11-06T16:05:52.424Z,17.10
2018-11-06T16:08:21.212Z,16.90
2018-11-06T16:10:49.655Z,16.80
2018-11-06T16:13:17.996Z,16.70
2018-11-06T16:15:46.274Z,16.50
2018-11-06T16:18:14.578Z,16.40
2018-11-06T16:20:43.284Z,16.30
2018-11-06T16:23:11.663Z,16.30
2018-11-06T16:25:40.002Z,16.20
2018-11-06T16:28:08.341Z,16.10
2018-11-06T16:30:36.586Z,16.00
2018-11-06T16:33:05.150Z,15.90
2018-11-06T16:35:33.749Z,15.80
2018-11-06T16:38:02.409Z,15.80
2018-11-06T16:40:30.659Z,15.70
2018-11-06T16:42:59.021Z,15.60
2018-11-06T16:45:27.309Z,15.50
2018-11-06T16:47:55.542Z,15.50
2018-11-06T16:50:23.979Z,15.40
2018-11-06T16:52:55.232Z,15.40
2018-11-06T16:55:23.642Z,15.30
2018-11-06T16:57:55.040Z,15.30
2018-11-06T17:00:25.017Z,15.20
2018-11-06T17:02:53.267Z,15.20
2018-11-06T17:05:21.510Z,15.10
2018-11-06T17:07:50.348Z,15.10
2018-11-06T17:10:25.153Z,15.00
2018-11-06T17:12:53.459Z,15.00
2018-11-06T17:15:22.801Z,15.00
2018-11-06T17:17:52.228Z,14.90
2018-11-06T17:20:21.022Z,14.90
2018-11-06T17:22:49.336Z,14.80
2018-11-06T17:25:18.828Z,14.80
2018-11-06T17:27:47.120Z,14.80
2018-11-06T17:30:16.647Z,14.80
2018-11-06T17:32:45.052Z,14.70
2018-11-06T17:35:15.047Z,14.70
2018-11-06T17:37:43.453Z,14.70
2018-11-06T17:40:13.339Z,14.70
2018-11-06T17:42:41.977Z,14.70
2018-11-06T17:45:12.807Z,14.60
2018-11-06T17:47:41.320Z,14.60
2018-11-06T17:50:11.268Z,14.60
2018-11-06T17:52:39.586Z,14.60
2018-11-06T17:55:09.419Z,14.50
2018-11-06T17:57:38.161Z,14.50
2018-11-06T18:00:08.872Z,14.50
2018-11-06T18:02:37.509Z,14.50
2018-11-06T18:05:05.838Z,14.40
2018-11-06T18:07:34.133Z,14.40
2018-11-06T18:10:02.406Z,14.40
2018-11-06T18:12:31.003Z,14.40
2018-11-06T18:14:59.237Z,14.30
2018-11-06T18:17:27.563Z,14.30
2018-11-06T18:19:55.772Z,14.30
2018-11-06T18:22:24.006Z,14.20
2018-11-06T18:24:52.290Z,14.20
2018-11-06T18:27:20.563Z,14.20
2018-11-06T18:29:48.883Z,14.20
2018-11-06T18:32:17.244Z,14.10
2018-11-06T18:34:45.469Z,14.10
2018-11-06T18:37:14.595Z,14.10
2018-11-06T18:39:42.881Z,14.10
2018-11-06T18:42:11.270Z,14.10
2018-11-06T18:44:39.621Z,14.10
2018-11-06T18:47:07.905Z,14.10
2018-11-06T18:49:36.148Z,14.10
2018-11-06T18:52:04.706Z,14.10
2018-11-06T18:54:32.972Z,14.10
2018-11-06T18:57:01.249Z,14.00
2018-11-06T18:59:29.513Z,14.00
2018-11-06T19:01:57.797Z,14.00
2018-11-06T19:04:26.080Z,14.00
2018-11-06T19:06:54.399Z,13.90
2018-11-06T19:09:22.672Z,13.90
2018-11-06T19:11:50.920Z,13.80
2018-11-06T19:14:19.229Z,13.80
2018-11-06T19:16:47.530Z,13.60
2018-11-06T19:19:15.770Z,13.60
2018-11-06T19:21:44.019Z,13.50
2018-11-06T19:24:12.456Z,13.50
2018-11-06T19:26:40.691Z,13.50
2018-11-06T19:29:08.976Z,13.50
2018-11-06T19:31:37.246Z,13.50
2018-11-06T19:34:05.537Z,13.50
2018-11-06T19:36:33.819Z,13.50
2018-11-06T19:39:02.126Z,13.50
2018-11-06T19:41:30.414Z,13.40
2018-11-06T19:43:58.752Z,13.40
2018-11-06T19:46:27.022Z,13.40
2018-11-06T19:48:55.267Z,13.30
2018-11-06T19:51:23.553Z,13.30
2018-11-06T19:53:51.946Z,13.30
2018-11-06T19:56:20.204Z,13.20
2018-11-06T19:58:48.500Z,13.20
2018-11-06T20:01:17.056Z,13.10
2018-11-06T20:03:45.407Z,13.10
2018-11-06T20:06:13.638Z,13.00
2018-11-06T20:08:41.938Z,13.00
2018-11-06T20:11:10.283Z,13.00
2018-11-06T20:13:38.531Z,13.00
2018-11-06T20:16:06.882Z,13.00
2018-11-06T20:18:35.321Z,12.90
2018-11-06T20:21:03.588Z,12.90
2018-11-06T20:23:31.912Z,12.90
2018-11-06T20:26:00.208Z,12.80
2018-11-06T20:28:28.470Z,12.80
2018-11-06T20:30:56.823Z,12.70
2018-11-06T20:33:25.212Z,12.60
2018-11-06T20:35:53.430Z,12.60
2018-11-06T20:38:21.938Z,12.60
2018-11-06T20:40:50.242Z,12.50
2018-11-06T20:43:19.726Z,12.50
2018-11-06T20:45:47.913Z,12.40
2018-11-06T20:48:16.196Z,12.40
2018-11-06T20:50:44.514Z,12.40
2018-11-06T20:53:12.779Z,12.30
2018-11-06T20:55:41.135Z,12.30
2018-11-06T20:58:09.380Z,12.30
2018-11-06T21:00:37.670Z,12.30
2018-11-06T21:03:05.926Z,12.20
2018-11-06T21:05:34.237Z,12.20
2018-11-06T21:08:02.490Z,12.20
2018-11-06T21:10:31.458Z,12.20
2018-11-06T21:12:59.989Z,12.10
2018-11-06T21:15:28.251Z,12.10
2018-11-06T21:17:56.696Z,12.00
2018-11-06T21:20:25.000Z,12.00
2018-11-06T21:22:53.163Z,12.00
2018-11-06T21:25:21.601Z,12.00
2018-11-06T21:27:49.765Z,12.00
2018-11-06T21:30:19.324Z,12.00
2018-11-06T21:32:48.800Z,11.90
2018-11-06T21:35:17.323Z,11.90
2018-11-06T21:37:45.684Z,11.90
2018-11-06T21:40:16.372Z,11.90
2018-11-06T21:42:45.151Z,11.90
2018-11-06T21:45:14.139Z,11.90
2018-11-06T21:47:43.303Z,11.90
2018-11-06T21:50:12.446Z,11.90
2018-11-06T21:52:40.690Z,11.90
2018-11-06T21:55:10.503Z,11.80
2018-11-06T21:57:38.818Z,11.80
2018-11-06T22:00:09.211Z,11.80
2018-11-06T22:02:37.632Z,11.70
2018-11-06T22:05:07.298Z,11.70
2018-11-06T22:07:35.543Z,11.70
2018-11-06T22:10:04.259Z,11.70
2018-11-06T22:12:32.534Z,11.60
2018-11-06T22:15:00.866Z,11.60
2018-11-06T22:17:29.150Z,11.60
2018-11-06T22:19:57.384Z,11.60
2018-11-06T22:22:25.698Z,11.60
2018-11-06T22:24:53.942Z,11.60
2018-11-06T22:27:22.270Z,11.60
2018-11-06T22:29:50.451Z,11.60
2018-11-06T22:32:18.877Z,11.60
2018-11-06T22:34:47.123Z,11.60
2018-11-06T22:37:15.692Z,11.60
2018-11-06T22:39:43.896Z,11.60
2018-11-06T22:42:12.191Z,11.60
2018-11-06T22:44:40.418Z,11.60
2018-11-06T22:47:08.660Z,11.60
2018-11-06T22:49:36.944Z,11.70
2018-11-06T22:52:05.406Z,11.70
2018-11-06T22:54:33.737Z,11.70
2018-11-06T22:57:02.194Z,11.70
2018-11-06T22:59:30.584Z,11.70
2018-11-06T23:01:58.857Z,11.70
2018-11-06T23:04:27.109Z,11.70
2018-11-06T23:06:55.525Z,11.60
2018-11-06T23:09:23.656Z,11.60
2018-11-06T23:11:51.925Z,11.50
2018-11-06T23:14:20.206Z,11.30
2018-11-06T23:16:48.428Z,11.30
2018-11-06T23:19:16.693Z,11.40
2018-11-06T23:21:44.949Z,11.50
2018-11-06T23:24:13.314Z,11.50
2018-11-06T23:26:41.547Z,11.50
2018-11-06T23:29:09.821Z,11.50
2018-11-06T23:31:38.180Z,11.50
2018-11-06T23:34:06.342Z,11.50
2018-11-06T23:36:35.589Z,11.50
2018-11-06T23:39:04.986Z,11.50
2018-11-06T23:41:33.254Z,11.50
2018-11-06T23:44:01.475Z,11.50
2018-11-06T23:46:29.688Z,11.50
2018-11-06T23:48:58.007Z,11.50
2018-11-06T23:51:26.222Z,11.50
2018-11-06T23:53:54.512Z,11.50
2018-11-06T23:56:22.807Z,11.50
2018-11-06T23:58:51.070Z,11.50
